< < Back
Terminal Aerodrome Forecast


Current Version              Previous Versions:   1  2  3  4  5  6  7  8  9  

Terminal Aerodrome Forecast

958
FTUS44 KOHX 241140
TAFBNA
TAF
KBNA 241140Z 2412/2512 19006KT P6SM BKN250
     FM241900 20006KT P6SM VCTS BKN045CB BKN080
     FM250100 18004KT P6SM SCT100 BKN250=

Latest METAR

926
SAUS70 KWBC 251000 RRC
MTRBNA
METAR KBNA 250953Z 16003KT 10SM BKN250 24/23 A3003 RMK AO2 SLP159
T02440228 $


USA.gov is the U.S. government's official web portal to all federal, state and local government web resources and services.